sensor_id;sensor_type;location;lat;lon;timestamp;P1;durP1;ratioP1;P2;durP2;ratioP2
14241;SDS011;7205;50.864;12.766;2022-11-15T00:01:49;5.40;;;4.37;;
14241;SDS011;7205;50.864;12.766;2022-11-15T00:04:34;5.50;;;4.43;;
14241;SDS011;7205;50.864;12.766;2022-11-15T00:11:14;5.40;;;4.23;;
14241;SDS011;7205;50.864;12.766;2022-11-15T00:13:59;4.73;;;4.20;;
14241;SDS011;7205;50.864;12.766;2022-11-15T00:16:46;4.10;;;3.80;;
14241;SDS011;7205;50.864;12.766;2022-11-15T00:19:31;5.10;;;3.97;;
14241;SDS011;7205;50.864;12.766;2022-11-15T00:22:17;4.47;;;4.07;;
14241;SDS011;7205;50.864;12.766;2022-11-15T00:25:02;4.30;;;3.90;;
14241;SDS011;7205;50.864;12.766;2022-11-15T00:27:50;4.80;;;4.40;;
14241;SDS011;7205;50.864;12.766;2022-11-15T00:30:36;4.80;;;4.30;;
14241;SDS011;7205;50.864;12.766;2022-11-15T00:37:07;4.93;;;4.53;;
14241;SDS011;7205;50.864;12.766;2022-11-15T00:42:33;4.50;;;4.10;;
14241;SDS011;7205;50.864;12.766;2022-11-15T00:48:28;4.60;;;4.20;;
14241;SDS011;7205;50.864;12.766;2022-11-15T00:51:15;4.10;;;3.70;;
14241;SDS011;7205;50.864;12.766;2022-11-15T00:54:00;5.87;;;3.57;;
14241;SDS011;7205;50.864;12.766;2022-11-15T00:56:46;5.63;;;4.00;;
14241;SDS011;7205;50.864;12.766;2022-11-15T00:59:32;4.47;;;4.07;;
14241;SDS011;7205;50.864;12.766;2022-11-15T01:02:19;5.40;;;3.60;;
14241;SDS011;7205;50.864;12.766;2022-11-15T01:05:04;3.73;;;3.53;;
14241;SDS011;7205;50.864;12.766;2022-11-15T01:07:51;4.63;;;4.27;;
14241;SDS011;7205;50.864;12.766;2022-11-15T01:10:37;4.33;;;3.90;;
14241;SDS011;7205;50.864;12.766;2022-11-15T01:13:22;4.47;;;4.10;;
14241;SDS011;7205;50.864;12.766;2022-11-15T01:16:08;4.20;;;3.90;;
14241;SDS011;7205;50.864;12.766;2022-11-15T01:18:56;4.47;;;4.17;;
14241;SDS011;7205;50.864;12.766;2022-11-15T01:21:42;4.30;;;3.97;;
14241;SDS011;7205;50.864;12.766;2022-11-15T01:24:27;5.53;;;3.90;;
14241;SDS011;7205;50.864;12.766;2022-11-15T01:27:13;4.77;;;4.23;;
14241;SDS011;7205;50.864;12.766;2022-11-15T01:29:58;6.17;;;4.27;;
14241;SDS011;7205;50.864;12.766;2022-11-15T01:32:44;4.00;;;3.63;;
14241;SDS011;7205;50.864;12.766;2022-11-15T01:35:31;4.40;;;4.00;;
14241;SDS011;7205;50.864;12.766;2022-11-15T01:38:16;4.40;;;4.00;;
14241;SDS011;7205;50.864;12.766;2022-11-15T01:41:02;4.67;;;4.27;;
14241;SDS011;7205;50.864;12.766;2022-11-15T01:43:48;4.43;;;4.03;;
14241;SDS011;7205;50.864;12.766;2022-11-15T01:46:36;4.53;;;4.13;;
14241;SDS011;7205;50.864;12.766;2022-11-15T01:49:24;5.00;;;4.50;;
14241;SDS011;7205;50.864;12.766;2022-11-15T01:52:15;4.60;;;4.20;;
14241;SDS011;7205;50.864;12.766;2022-11-15T01:55:05;5.03;;;4.47;;
14241;SDS011;7205;50.864;12.766;2022-11-15T01:57:55;4.97;;;4.47;;
14241;SDS011;7205;50.864;12.766;2022-11-15T02:00:45;4.87;;;4.33;;
14241;SDS011;7205;50.864;12.766;2022-11-15T02:03:33;4.40;;;4.00;;
14241;SDS011;7205;50.864;12.766;2022-11-15T02:06:23;5.17;;;4.30;;
14241;SDS011;7205;50.864;12.766;2022-11-15T02:09:09;3.90;;;3.60;;
14241;SDS011;7205;50.864;12.766;2022-11-15T02:11:56;4.13;;;3.83;;
14241;SDS011;7205;50.864;12.766;2022-11-15T02:14:42;4.50;;;4.10;;
14241;SDS011;7205;50.864;12.766;2022-11-15T02:17:40;4.63;;;4.10;;
14241;SDS011;7205;50.864;12.766;2022-11-15T02:20:40;4.87;;;4.27;;
14241;SDS011;7205;50.864;12.766;2022-11-15T02:26:56;4.63;;;4.07;;
14241;SDS011;7205;50.864;12.766;2022-11-15T02:30:23;4.03;;;3.63;;
14241;SDS011;7205;50.864;12.766;2022-11-15T02:33:13;3.97;;;3.67;;
14241;SDS011;7205;50.864;12.766;2022-11-15T02:36:11;4.10;;;3.37;;
14241;SDS011;7205;50.864;12.766;2022-11-15T02:39:03;4.40;;;3.90;;
14241;SDS011;7205;50.864;12.766;2022-11-15T02:41:57;3.77;;;3.47;;
14241;SDS011;7205;50.864;12.766;2022-11-15T02:44:47;4.53;;;3.70;;
14241;SDS011;7205;50.864;12.766;2022-11-15T02:47:35;4.13;;;3.50;;
14241;SDS011;7205;50.864;12.766;2022-11-15T02:50:28;5.03;;;4.53;;
14241;SDS011;7205;50.864;12.766;2022-11-15T02:53:15;4.17;;;3.87;;
14241;SDS011;7205;50.864;12.766;2022-11-15T02:56:00;4.37;;;4.00;;
14241;SDS011;7205;50.864;12.766;2022-11-15T02:58:48;3.97;;;3.63;;
14241;SDS011;7205;50.864;12.766;2022-11-15T03:01:51;6.00;;;4.07;;
14241;SDS011;7205;50.864;12.766;2022-11-15T03:04:52;4.70;;;4.30;;
14241;SDS011;7205;50.864;12.766;2022-11-15T03:07:42;4.70;;;4.30;;
14241;SDS011;7205;50.864;12.766;2022-11-15T03:10:41;4.97;;;4.57;;
14241;SDS011;7205;50.864;12.766;2022-11-15T03:13:33;5.93;;;4.73;;
14241;SDS011;7205;50.864;12.766;2022-11-15T03:16:24;4.80;;;4.40;;
14241;SDS011;7205;50.864;12.766;2022-11-15T03:19:16;5.43;;;4.87;;
14241;SDS011;7205;50.864;12.766;2022-11-15T03:22:11;4.30;;;3.90;;
14241;SDS011;7205;50.864;12.766;2022-11-15T03:25:00;4.13;;;3.77;;
14241;SDS011;7205;50.864;12.766;2022-11-15T03:27:51;4.97;;;4.00;;
14241;SDS011;7205;50.864;12.766;2022-11-15T03:30:38;5.87;;;3.70;;
14241;SDS011;7205;50.864;12.766;2022-11-15T03:33:26;3.87;;;3.57;;
14241;SDS011;7205;50.864;12.766;2022-11-15T03:36:13;3.50;;;3.20;;
14241;SDS011;7205;50.864;12.766;2022-11-15T03:39:02;4.00;;;3.60;;
14241;SDS011;7205;50.864;12.766;2022-11-15T03:41:53;3.83;;;3.53;;
14241;SDS011;7205;50.864;12.766;2022-11-15T03:44:50;3.30;;;3.00;;
14241;SDS011;7205;50.864;12.766;2022-11-15T03:47:40;3.90;;;3.57;;
14241;SDS011;7205;50.864;12.766;2022-11-15T03:50:28;5.23;;;3.30;;
14241;SDS011;7205;50.864;12.766;2022-11-15T03:53:14;4.07;;;3.00;;
14241;SDS011;7205;50.864;12.766;2022-11-15T03:56:01;3.80;;;3.50;;
14241;SDS011;7205;50.864;12.766;2022-11-15T03:58:46;4.67;;;3.30;;
14241;SDS011;7205;50.864;12.766;2022-11-15T04:01:31;3.43;;;3.03;;
14241;SDS011;7205;50.864;12.766;2022-11-15T04:04:16;5.17;;;2.73;;
14241;SDS011;7205;50.864;12.766;2022-11-15T04:07:02;3.90;;;2.70;;
14241;SDS011;7205;50.864;12.766;2022-11-15T04:09:47;2.90;;;2.70;;
14241;SDS011;7205;50.864;12.766;2022-11-15T04:12:50;4.93;;;2.93;;
14241;SDS011;7205;50.864;12.766;2022-11-15T04:15:35;4.20;;;3.63;;
14241;SDS011;7205;50.864;12.766;2022-11-15T04:18:21;3.57;;;2.37;;
14241;SDS011;7205;50.864;12.766;2022-11-15T04:21:08;3.30;;;2.70;;
14241;SDS011;7205;50.864;12.766;2022-11-15T04:24:11;2.77;;;2.47;;
14241;SDS011;7205;50.864;12.766;2022-11-15T04:26:59;3.23;;;3.00;;
14241;SDS011;7205;50.864;12.766;2022-11-15T04:29:46;3.97;;;2.90;;
14241;SDS011;7205;50.864;12.766;2022-11-15T04:32:31;7.87;;;2.70;;
14241;SDS011;7205;50.864;12.766;2022-11-15T04:35:17;2.93;;;2.73;;
14241;SDS011;7205;50.864;12.766;2022-11-15T04:38:04;2.70;;;2.50;;
14241;SDS011;7205;50.864;12.766;2022-11-15T04:40:51;3.23;;;2.93;;
14241;SDS011;7205;50.864;12.766;2022-11-15T04:43:37;3.17;;;2.40;;
14241;SDS011;7205;50.864;12.766;2022-11-15T04:46:24;2.90;;;2.70;;
14241;SDS011;7205;50.864;12.766;2022-11-15T04:49:10;2.90;;;2.70;;
14241;SDS011;7205;50.864;12.766;2022-11-15T04:51:56;3.03;;;2.83;;
14241;SDS011;7205;50.864;12.766;2022-11-15T04:54:41;3.87;;;3.00;;
14241;SDS011;7205;50.864;12.766;2022-11-15T04:57:27;2.90;;;2.70;;
14241;SDS011;7205;50.864;12.766;2022-11-15T05:00:13;3.70;;;2.90;;
14241;SDS011;7205;50.864;12.766;2022-11-15T05:03:02;6.73;;;2.87;;
14241;SDS011;7205;50.864;12.766;2022-11-15T05:06:05;3.23;;;2.87;;
14241;SDS011;7205;50.864;12.766;2022-11-15T05:08:53;3.87;;;2.80;;
14241;SDS011;7205;50.864;12.766;2022-11-15T05:11:38;2.80;;;2.60;;
14241;SDS011;7205;50.864;12.766;2022-11-15T05:14:24;2.63;;;2.43;;
14241;SDS011;7205;50.864;12.766;2022-11-15T05:17:09;3.37;;;2.77;;
14241;SDS011;7205;50.864;12.766;2022-11-15T05:19:56;2.73;;;2.53;;
14241;SDS011;7205;50.864;12.766;2022-11-15T05:22:41;2.63;;;2.50;;
14241;SDS011;7205;50.864;12.766;2022-11-15T05:25:27;3.03;;;2.30;;
14241;SDS011;7205;50.864;12.766;2022-11-15T05:28:13;3.20;;;2.90;;
14241;SDS011;7205;50.864;12.766;2022-11-15T05:31:00;2.60;;;2.50;;
14241;SDS011;7205;50.864;12.766;2022-11-15T05:33:46;2.43;;;2.23;;
14241;SDS011;7205;50.864;12.766;2022-11-15T05:36:33;3.93;;;2.70;;
14241;SDS011;7205;50.864;12.766;2022-11-15T05:39:21;3.13;;;2.53;;
14241;SDS011;7205;50.864;12.766;2022-11-15T05:42:07;2.50;;;2.30;;
14241;SDS011;7205;50.864;12.766;2022-11-15T05:44:55;3.60;;;3.30;;
14241;SDS011;7205;50.864;12.766;2022-11-15T05:47:43;2.60;;;2.40;;
14241;SDS011;7205;50.864;12.766;2022-11-15T05:50:29;3.00;;;2.70;;
14241;SDS011;7205;50.864;12.766;2022-11-15T05:53:17;3.70;;;2.70;;
14241;SDS011;7205;50.864;12.766;2022-11-15T05:56:06;2.90;;;2.70;;
14241;SDS011;7205;50.864;12.766;2022-11-15T05:58:53;2.87;;;2.67;;
14241;SDS011;7205;50.864;12.766;2022-11-15T06:01:42;2.70;;;2.30;;
14241;SDS011;7205;50.864;12.766;2022-11-15T06:04:27;2.20;;;2.10;;
14241;SDS011;7205;50.864;12.766;2022-11-15T06:07:12;2.90;;;2.70;;
14241;SDS011;7205;50.864;12.766;2022-11-15T06:09:59;5.93;;;5.43;;
14241;SDS011;7205;50.864;12.766;2022-11-15T06:12:45;3.27;;;2.70;;
14241;SDS011;7205;50.864;12.766;2022-11-15T06:15:31;4.10;;;2.40;;
14241;SDS011;7205;50.864;12.766;2022-11-15T06:18:17;4.20;;;2.70;;
14241;SDS011;7205;50.864;12.766;2022-11-15T06:21:02;2.83;;;2.60;;
14241;SDS011;7205;50.864;12.766;2022-11-15T06:23:48;2.53;;;2.33;;
14241;SDS011;7205;50.864;12.766;2022-11-15T06:26:35;2.43;;;2.23;;
14241;SDS011;7205;50.864;12.766;2022-11-15T06:29:20;3.23;;;2.93;;
14241;SDS011;7205;50.864;12.766;2022-11-15T06:32:06;3.90;;;2.53;;
14241;SDS011;7205;50.864;12.766;2022-11-15T06:34:51;3.07;;;2.77;;
14241;SDS011;7205;50.864;12.766;2022-11-15T06:37:37;10.00;;;3.53;;
14241;SDS011;7205;50.864;12.766;2022-11-15T06:40:22;3.93;;;2.90;;
14241;SDS011;7205;50.864;12.766;2022-11-15T06:43:09;4.00;;;2.93;;
14241;SDS011;7205;50.864;12.766;2022-11-15T06:45:54;3.50;;;2.70;;
14241;SDS011;7205;50.864;12.766;2022-11-15T06:48:39;8.80;;;3.10;;
14241;SDS011;7205;50.864;12.766;2022-11-15T06:51:25;3.00;;;2.53;;
14241;SDS011;7205;50.864;12.766;2022-11-15T06:54:10;3.03;;;2.73;;
14241;SDS011;7205;50.864;12.766;2022-11-15T06:56:55;4.27;;;2.07;;
14241;SDS011;7205;50.864;12.766;2022-11-15T06:59:42;2.87;;;2.57;;
14241;SDS011;7205;50.864;12.766;2022-11-15T07:02:27;3.13;;;2.13;;
14241;SDS011;7205;50.864;12.766;2022-11-15T07:05:13;2.00;;;1.90;;
14241;SDS011;7205;50.864;12.766;2022-11-15T07:08:01;2.03;;;1.70;;
14241;SDS011;7205;50.864;12.766;2022-11-15T07:10:46;2.03;;;1.93;;
14241;SDS011;7205;50.864;12.766;2022-11-15T07:13:33;2.10;;;2.00;;
14241;SDS011;7205;50.864;12.766;2022-11-15T07:16:20;2.17;;;1.97;;
14241;SDS011;7205;50.864;12.766;2022-11-15T07:19:06;2.20;;;2.00;;
14241;SDS011;7205;50.864;12.766;2022-11-15T07:21:53;3.97;;;2.57;;
14241;SDS011;7205;50.864;12.766;2022-11-15T07:24:39;3.43;;;3.13;;
14241;SDS011;7205;50.864;12.766;2022-11-15T07:27:25;3.00;;;2.10;;
14241;SDS011;7205;50.864;12.766;2022-11-15T07:30:10;2.80;;;2.40;;
14241;SDS011;7205;50.864;12.766;2022-11-15T07:32:58;2.77;;;2.57;;
14241;SDS011;7205;50.864;12.766;2022-11-15T07:35:45;4.57;;;2.60;;
14241;SDS011;7205;50.864;12.766;2022-11-15T07:38:33;4.47;;;3.00;;
14241;SDS011;7205;50.864;12.766;2022-11-15T07:41:19;5.30;;;3.20;;
14241;SDS011;7205;50.864;12.766;2022-11-15T07:44:05;6.17;;;3.50;;
14241;SDS011;7205;50.864;12.766;2022-11-15T07:46:50;3.10;;;2.80;;
14241;SDS011;7205;50.864;12.766;2022-11-15T07:49:37;5.83;;;2.47;;
14241;SDS011;7205;50.864;12.766;2022-11-15T07:52:22;2.47;;;2.27;;
14241;SDS011;7205;50.864;12.766;2022-11-15T07:55:08;3.27;;;2.70;;
14241;SDS011;7205;50.864;12.766;2022-11-15T07:57:59;2.90;;;2.10;;
14241;SDS011;7205;50.864;12.766;2022-11-15T08:00:45;2.47;;;1.60;;
14241;SDS011;7205;50.864;12.766;2022-11-15T08:03:31;2.07;;;1.97;;
14241;SDS011;7205;50.864;12.766;2022-11-15T08:06:18;3.07;;;2.03;;
14241;SDS011;7205;50.864;12.766;2022-11-15T08:09:03;3.53;;;1.70;;
14241;SDS011;7205;50.864;12.766;2022-11-15T08:11:49;3.30;;;1.43;;
14241;SDS011;7205;50.864;12.766;2022-11-15T08:14:34;2.30;;;1.37;;
14241;SDS011;7205;50.864;12.766;2022-11-15T08:17:20;5.10;;;1.90;;
14241;SDS011;7205;50.864;12.766;2022-11-15T08:20:06;1.93;;;1.83;;
14241;SDS011;7205;50.864;12.766;2022-11-15T08:22:54;2.40;;;1.60;;
14241;SDS011;7205;50.864;12.766;2022-11-15T08:25:39;1.97;;;1.73;;
14241;SDS011;7205;50.864;12.766;2022-11-15T08:28:25;1.97;;;1.60;;
14241;SDS011;7205;50.864;12.766;2022-11-15T08:31:12;3.07;;;1.70;;
14241;SDS011;7205;50.864;12.766;2022-11-15T08:34:00;4.40;;;2.00;;
14241;SDS011;7205;50.864;12.766;2022-11-15T08:36:45;3.67;;;1.60;;
14241;SDS011;7205;50.864;12.766;2022-11-15T08:39:32;2.57;;;1.67;;
14241;SDS011;7205;50.864;12.766;2022-11-15T08:42:18;2.47;;;1.80;;
14241;SDS011;7205;50.864;12.766;2022-11-15T08:45:03;1.97;;;1.40;;
14241;SDS011;7205;50.864;12.766;2022-11-15T08:47:49;1.60;;;1.50;;
14241;SDS011;7205;50.864;12.766;2022-11-15T08:50:35;2.37;;;1.60;;
14241;SDS011;7205;50.864;12.766;2022-11-15T08:56:31;2.97;;;1.70;;
14241;SDS011;7205;50.864;12.766;2022-11-15T08:59:16;1.77;;;1.67;;
14241;SDS011;7205;50.864;12.766;2022-11-15T09:02:02;4.40;;;1.73;;
14241;SDS011;7205;50.864;12.766;2022-11-15T09:04:49;2.40;;;1.60;;
14241;SDS011;7205;50.864;12.766;2022-11-15T09:07:35;1.50;;;1.40;;
14241;SDS011;7205;50.864;12.766;2022-11-15T09:10:21;5.27;;;1.53;;
14241;SDS011;7205;50.864;12.766;2022-11-15T09:13:08;1.60;;;1.43;;
14241;SDS011;7205;50.864;12.766;2022-11-15T09:15:58;1.70;;;1.60;;
14241;SDS011;7205;50.864;12.766;2022-11-15T09:18:49;2.83;;;2.23;;
14241;SDS011;7205;50.864;12.766;2022-11-15T09:21:35;4.97;;;1.97;;
14241;SDS011;7205;50.864;12.766;2022-11-15T09:24:21;5.80;;;1.50;;
14241;SDS011;7205;50.864;12.766;2022-11-15T09:27:07;2.20;;;1.60;;
14241;SDS011;7205;50.864;12.766;2022-11-15T09:29:53;1.80;;;1.70;;
14241;SDS011;7205;50.864;12.766;2022-11-15T09:32:39;3.00;;;2.47;;
14241;SDS011;7205;50.864;12.766;2022-11-15T09:35:24;2.77;;;1.50;;
14241;SDS011;7205;50.864;12.766;2022-11-15T09:38:11;4.90;;;2.67;;
14241;SDS011;7205;50.864;12.766;2022-11-15T09:40:59;3.63;;;2.10;;
14241;SDS011;7205;50.864;12.766;2022-11-15T09:44:07;4.07;;;1.70;;
14241;SDS011;7205;50.864;12.766;2022-11-15T09:47:27;3.17;;;2.00;;
14241;SDS011;7205;50.864;12.766;2022-11-15T09:50:31;2.57;;;1.90;;
14241;SDS011;7205;50.864;12.766;2022-11-15T09:53:00;2.90;;;1.97;;
14241;SDS011;7205;50.864;12.766;2022-11-15T09:55:30;2.37;;;2.17;;
14241;SDS011;7205;50.864;12.766;2022-11-15T09:58:09;1.60;;;1.50;;
14241;SDS011;7205;50.864;12.766;2022-11-15T10:00:46;2.73;;;2.00;;
14241;SDS011;7205;50.864;12.766;2022-11-15T10:03:20;2.47;;;1.70;;
14241;SDS011;7205;50.864;12.766;2022-11-15T10:05:53;2.20;;;1.63;;
14241;SDS011;7205;50.864;12.766;2022-11-15T10:11:18;2.60;;;2.40;;
14241;SDS011;7205;50.864;12.766;2022-11-15T10:13:47;1.50;;;1.40;;
14241;SDS011;7205;50.864;12.766;2022-11-15T10:16:36;1.80;;;1.70;;
14241;SDS011;7205;50.864;12.766;2022-11-15T10:19:26;3.87;;;1.60;;
14241;SDS011;7205;50.864;12.766;2022-11-15T10:22:04;4.00;;;1.63;;
14241;SDS011;7205;50.864;12.766;2022-11-15T10:24:42;2.37;;;1.43;;
14241;SDS011;7205;50.864;12.766;2022-11-15T10:27:12;1.43;;;1.33;;
14241;SDS011;7205;50.864;12.766;2022-11-15T10:29:44;1.93;;;1.40;;
14241;SDS011;7205;50.864;12.766;2022-11-15T10:32:13;1.27;;;1.17;;
14241;SDS011;7205;50.864;12.766;2022-11-15T10:34:44;2.03;;;1.07;;
14241;SDS011;7205;50.864;12.766;2022-11-15T10:37:11;1.20;;;1.10;;
14241;SDS011;7205;50.864;12.766;2022-11-15T10:39:38;2.23;;;1.37;;
14241;SDS011;7205;50.864;12.766;2022-11-15T10:42:15;1.73;;;1.50;;
14241;SDS011;7205;50.864;12.766;2022-11-15T10:44:43;1.87;;;1.30;;
14241;SDS011;7205;50.864;12.766;2022-11-15T10:47:21;1.73;;;1.40;;
14241;SDS011;7205;50.864;12.766;2022-11-15T10:49:56;1.70;;;1.60;;
14241;SDS011;7205;50.864;12.766;2022-11-15T10:52:29;1.47;;;1.33;;
14241;SDS011;7205;50.864;12.766;2022-11-15T10:54:59;1.60;;;1.50;;
14241;SDS011;7205;50.864;12.766;2022-11-15T10:57:30;1.37;;;1.27;;
14241;SDS011;7205;50.864;12.766;2022-11-15T11:00:04;1.57;;;1.40;;
14241;SDS011;7205;50.864;12.766;2022-11-15T11:02:34;2.63;;;1.40;;
14241;SDS011;7205;50.864;12.766;2022-11-15T11:05:05;1.47;;;1.30;;
14241;SDS011;7205;50.864;12.766;2022-11-15T11:07:55;1.40;;;1.20;;
14241;SDS011;7205;50.864;12.766;2022-11-15T11:10:23;3.30;;;1.50;;
14241;SDS011;7205;50.864;12.766;2022-11-15T11:12:50;1.43;;;1.27;;
14241;SDS011;7205;50.864;12.766;2022-11-15T11:15:17;1.40;;;1.30;;
14241;SDS011;7205;50.864;12.766;2022-11-15T11:17:51;4.40;;;2.33;;
14241;SDS011;7205;50.864;12.766;2022-11-15T11:20:27;2.80;;;1.60;;
14241;SDS011;7205;50.864;12.766;2022-11-15T11:23:06;1.70;;;1.60;;
14241;SDS011;7205;50.864;12.766;2022-11-15T11:25:51;2.77;;;2.20;;
14241;SDS011;7205;50.864;12.766;2022-11-15T11:28:33;4.57;;;3.87;;
14241;SDS011;7205;50.864;12.766;2022-11-15T11:31:13;4.00;;;2.20;;
14241;SDS011;7205;50.864;12.766;2022-11-15T11:33:49;2.27;;;2.07;;
14241;SDS011;7205;50.864;12.766;2022-11-15T11:36:26;2.13;;;2.03;;
14241;SDS011;7205;50.864;12.766;2022-11-15T11:39:05;5.13;;;2.90;;
14241;SDS011;7205;50.864;12.766;2022-11-15T11:41:51;3.87;;;2.67;;
14241;SDS011;7205;50.864;12.766;2022-11-15T11:44:31;4.70;;;2.50;;
14241;SDS011;7205;50.864;12.766;2022-11-15T11:47:03;3.70;;;2.30;;
14241;SDS011;7205;50.864;12.766;2022-11-15T11:49:37;6.10;;;2.30;;
14241;SDS011;7205;50.864;12.766;2022-11-15T11:52:13;5.43;;;2.20;;
14241;SDS011;7205;50.864;12.766;2022-11-15T11:54:49;2.87;;;2.27;;
14241;SDS011;7205;50.864;12.766;2022-11-15T11:57:27;4.17;;;1.77;;
14241;SDS011;7205;50.864;12.766;2022-11-15T12:00:03;3.20;;;1.80;;
14241;SDS011;7205;50.864;12.766;2022-11-15T12:02:40;3.00;;;1.70;;
14241;SDS011;7205;50.864;12.766;2022-11-15T12:05:10;4.63;;;1.80;;
14241;SDS011;7205;50.864;12.766;2022-11-15T12:07:43;3.07;;;2.10;;
14241;SDS011;7205;50.864;12.766;2022-11-15T12:10:19;2.63;;;2.00;;
14241;SDS011;7205;50.864;12.766;2022-11-15T12:12:50;3.53;;;1.73;;
14241;SDS011;7205;50.864;12.766;2022-11-15T12:15:23;1.83;;;1.50;;
14241;SDS011;7205;50.864;12.766;2022-11-15T12:17:52;1.73;;;1.53;;
14241;SDS011;7205;50.864;12.766;2022-11-15T12:20:22;2.73;;;1.50;;
14241;SDS011;7205;50.864;12.766;2022-11-15T12:22:54;1.60;;;1.50;;
14241;SDS011;7205;50.864;12.766;2022-11-15T12:25:27;2.77;;;1.70;;
14241;SDS011;7205;50.864;12.766;2022-11-15T12:27:58;2.13;;;1.60;;
14241;SDS011;7205;50.864;12.766;2022-11-15T12:30:40;4.87;;;1.80;;
14241;SDS011;7205;50.864;12.766;2022-11-15T12:35:57;1.50;;;1.40;;
14241;SDS011;7205;50.864;12.766;2022-11-15T12:41:23;2.87;;;1.73;;
14241;SDS011;7205;50.864;12.766;2022-11-15T12:43:55;3.23;;;1.33;;
14241;SDS011;7205;50.864;12.766;2022-11-15T12:52:10;1.50;;;1.40;;
14241;SDS011;7205;50.864;12.766;2022-11-15T12:54:53;3.50;;;1.63;;
14241;SDS011;7205;50.864;12.766;2022-11-15T12:57:39;1.53;;;1.43;;
14241;SDS011;7205;50.864;12.766;2022-11-15T13:03:25;7.30;;;2.37;;
14241;SDS011;7205;50.864;12.766;2022-11-15T13:05:58;4.00;;;1.73;;
14241;SDS011;7205;50.864;12.766;2022-11-15T13:08:39;1.33;;;1.10;;
14241;SDS011;7205;50.864;12.766;2022-11-15T13:17:20;1.23;;;1.23;;
14241;SDS011;7205;50.864;12.766;2022-11-15T13:19:52;2.50;;;1.40;;
14241;SDS011;7205;50.864;12.766;2022-11-15T13:22:24;2.40;;;1.50;;
14241;SDS011;7205;50.864;12.766;2022-11-15T13:25:14;1.37;;;1.20;;
14241;SDS011;7205;50.864;12.766;2022-11-15T13:28:10;1.70;;;1.50;;
14241;SDS011;7205;50.864;12.766;2022-11-15T13:30:50;1.83;;;1.50;;
14241;SDS011;7205;50.864;12.766;2022-11-15T13:33:20;2.40;;;1.57;;
14241;SDS011;7205;50.864;12.766;2022-11-15T13:35:50;1.70;;;1.60;;
14241;SDS011;7205;50.864;12.766;2022-11-15T13:38:25;3.80;;;1.47;;
14241;SDS011;7205;50.864;12.766;2022-11-15T13:40:54;2.10;;;1.70;;
14241;SDS011;7205;50.864;12.766;2022-11-15T13:43:31;2.87;;;1.57;;
14241;SDS011;7205;50.864;12.766;2022-11-15T13:48:51;5.27;;;1.87;;
14241;SDS011;7205;50.864;12.766;2022-11-15T13:51:22;2.97;;;1.40;;
14241;SDS011;7205;50.864;12.766;2022-11-15T13:53:55;2.10;;;1.40;;
14241;SDS011;7205;50.864;12.766;2022-11-15T13:56:25;1.43;;;1.30;;
14241;SDS011;7205;50.864;12.766;2022-11-15T13:58:53;3.93;;;1.40;;
14241;SDS011;7205;50.864;12.766;2022-11-15T14:01:22;1.60;;;1.50;;
14241;SDS011;7205;50.864;12.766;2022-11-15T14:03:54;2.03;;;1.90;;
14241;SDS011;7205;50.864;12.766;2022-11-15T14:06:23;4.43;;;1.50;;
14241;SDS011;7205;50.864;12.766;2022-11-15T14:09:00;1.30;;;1.20;;
14241;SDS011;7205;50.864;12.766;2022-11-15T14:11:29;1.87;;;1.77;;
14241;SDS011;7205;50.864;12.766;2022-11-15T14:14:04;1.90;;;1.80;;
14241;SDS011;7205;50.864;12.766;2022-11-15T14:16:40;1.70;;;1.60;;
14241;SDS011;7205;50.864;12.766;2022-11-15T14:19:10;1.80;;;1.70;;
14241;SDS011;7205;50.864;12.766;2022-11-15T14:24:46;2.47;;;2.20;;
14241;SDS011;7205;50.864;12.766;2022-11-15T14:27:18;9.77;;;4.90;;
14241;SDS011;7205;50.864;12.766;2022-11-15T14:29:46;25.93;;;11.50;;
14241;SDS011;7205;50.864;12.766;2022-11-15T14:32:16;15.27;;;9.00;;
14241;SDS011;7205;50.864;12.766;2022-11-15T14:34:44;8.63;;;4.73;;
14241;SDS011;7205;50.864;12.766;2022-11-15T14:37:21;7.40;;;5.23;;
14241;SDS011;7205;50.864;12.766;2022-11-15T14:39:49;9.10;;;5.30;;
14241;SDS011;7205;50.864;12.766;2022-11-15T14:42:17;7.70;;;5.37;;
14241;SDS011;7205;50.864;12.766;2022-11-15T14:44:45;7.57;;;4.87;;
14241;SDS011;7205;50.864;12.766;2022-11-15T14:47:13;6.30;;;4.53;;
14241;SDS011;7205;50.864;12.766;2022-11-15T14:49:41;7.03;;;4.30;;
14241;SDS011;7205;50.864;12.766;2022-11-15T14:52:22;5.90;;;3.60;;
14241;SDS011;7205;50.864;12.766;2022-11-15T14:54:52;4.13;;;2.33;;
14241;SDS011;7205;50.864;12.766;2022-11-15T14:57:22;3.10;;;2.80;;
14241;SDS011;7205;50.864;12.766;2022-11-15T14:59:49;5.80;;;3.50;;
14241;SDS011;7205;50.864;12.766;2022-11-15T15:02:19;3.63;;;2.90;;
14241;SDS011;7205;50.864;12.766;2022-11-15T15:04:48;7.37;;;2.87;;
14241;SDS011;7205;50.864;12.766;2022-11-15T15:07:15;9.43;;;3.10;;
14241;SDS011;7205;50.864;12.766;2022-11-15T15:09:43;4.33;;;2.63;;
14241;SDS011;7205;50.864;12.766;2022-11-15T15:12:13;4.00;;;3.33;;
14241;SDS011;7205;50.864;12.766;2022-11-15T15:14:42;6.13;;;4.53;;
14241;SDS011;7205;50.864;12.766;2022-11-15T15:17:10;5.83;;;5.00;;
14241;SDS011;7205;50.864;12.766;2022-11-15T15:19:38;4.07;;;3.37;;
14241;SDS011;7205;50.864;12.766;2022-11-15T15:22:05;3.00;;;2.80;;
14241;SDS011;7205;50.864;12.766;2022-11-15T15:24:35;5.97;;;3.60;;
14241;SDS011;7205;50.864;12.766;2022-11-15T15:27:02;5.83;;;3.70;;
14241;SDS011;7205;50.864;12.766;2022-11-15T15:29:33;3.77;;;3.47;;
14241;SDS011;7205;50.864;12.766;2022-11-15T15:32:00;3.77;;;3.47;;
14241;SDS011;7205;50.864;12.766;2022-11-15T15:34:27;4.77;;;3.80;;
14241;SDS011;7205;50.864;12.766;2022-11-15T15:37:07;6.13;;;4.30;;
14241;SDS011;7205;50.864;12.766;2022-11-15T15:39:35;4.30;;;3.90;;
14241;SDS011;7205;50.864;12.766;2022-11-15T15:42:05;6.83;;;4.80;;
14241;SDS011;7205;50.864;12.766;2022-11-15T15:44:32;6.30;;;4.50;;
14241;SDS011;7205;50.864;12.766;2022-11-15T15:46:59;5.50;;;4.30;;
14241;SDS011;7205;50.864;12.766;2022-11-15T15:49:26;8.37;;;5.27;;
14241;SDS011;7205;50.864;12.766;2022-11-15T15:51:53;7.03;;;4.70;;
14241;SDS011;7205;50.864;12.766;2022-11-15T15:54:22;5.80;;;4.63;;
14241;SDS011;7205;50.864;12.766;2022-11-15T15:56:50;5.60;;;4.83;;
14241;SDS011;7205;50.864;12.766;2022-11-15T15:59:17;5.47;;;4.23;;
14241;SDS011;7205;50.864;12.766;2022-11-15T16:01:44;6.07;;;5.07;;
14241;SDS011;7205;50.864;12.766;2022-11-15T16:04:11;15.37;;;5.33;;
14241;SDS011;7205;50.864;12.766;2022-11-15T16:06:39;6.60;;;4.33;;
14241;SDS011;7205;50.864;12.766;2022-11-15T16:09:11;7.00;;;4.47;;
14241;SDS011;7205;50.864;12.766;2022-11-15T16:11:41;4.97;;;3.80;;
14241;SDS011;7205;50.864;12.766;2022-11-15T16:14:09;3.57;;;2.80;;
14241;SDS011;7205;50.864;12.766;2022-11-15T16:16:36;6.27;;;3.27;;
14241;SDS011;7205;50.864;12.766;2022-11-15T16:19:04;4.60;;;3.60;;
14241;SDS011;7205;50.864;12.766;2022-11-15T16:21:31;3.17;;;2.97;;
14241;SDS011;7205;50.864;12.766;2022-11-15T16:23:58;3.43;;;3.13;;
14241;SDS011;7205;50.864;12.766;2022-11-15T16:26:25;4.73;;;3.10;;
14241;SDS011;7205;50.864;12.766;2022-11-15T16:28:55;6.60;;;2.97;;
14241;SDS011;7205;50.864;12.766;2022-11-15T16:31:25;3.10;;;2.90;;
14241;SDS011;7205;50.864;12.766;2022-11-15T16:33:52;3.27;;;2.67;;
14241;SDS011;7205;50.864;12.766;2022-11-15T16:36:20;3.20;;;2.90;;
14241;SDS011;7205;50.864;12.766;2022-11-15T16:38:48;3.50;;;2.70;;
14241;SDS011;7205;50.864;12.766;2022-11-15T16:41:16;3.17;;;2.73;;
14241;SDS011;7205;50.864;12.766;2022-11-15T16:43:44;4.50;;;2.73;;
14241;SDS011;7205;50.864;12.766;2022-11-15T16:46:17;4.57;;;2.97;;
14241;SDS011;7205;50.864;12.766;2022-11-15T16:48:45;3.53;;;3.20;;
14241;SDS011;7205;50.864;12.766;2022-11-15T16:51:12;4.23;;;3.60;;
14241;SDS011;7205;50.864;12.766;2022-11-15T16:53:40;5.43;;;3.90;;
14241;SDS011;7205;50.864;12.766;2022-11-15T16:58:50;5.23;;;3.63;;
14241;SDS011;7205;50.864;12.766;2022-11-15T17:01:21;5.83;;;4.90;;
14241;SDS011;7205;50.864;12.766;2022-11-15T17:03:49;5.27;;;4.23;;